Time;durP1;ratioP1;P1;durP2;ratioP2;P2;SDS_P1;SDS_P2;PMS_P1;PMS_P2;Temp;Humidity;BMP_temperature;BMP_pressure;BME280_temperature;BME280_humidity;BME280_pressure;Samples;Min_cycle;Max_cycle;Signal;HPM_P1;HPM_P2
2021/06/18 00:01:39;;;;;;;7.45;6.75;;;;;;;21.05;61.25;100529.81;4964040;28;20042;-74
2021/06/18 00:04:04;;;;;;;7.00;6.35;;;;;;;20.93;61.57;100529.47;4964023;28;20126;-74
2021/06/18 00:06:30;;;;;;;7.38;6.60;;;;;;;20.84;61.81;100519.19;4963236;28;20046;-74
2021/06/18 00:08:55;;;;;;;7.47;6.60;;;;;;;20.77;61.89;100528.47;4964553;28;20050;-74
2021/06/18 00:11:21;;;;;;;7.68;6.38;;;;;;;20.69;61.72;100525.28;4962978;28;20070;-74
2021/06/18 00:13:46;;;;;;;7.88;6.85;;;;;;;20.65;62.45;100521.03;4964945;28;20467;-74
2021/06/18 00:16:11;;;;;;;9.15;7.60;;;;;;;20.63;62.37;100520.22;4961972;28;20039;-74
2021/06/18 00:18:39;;;;;;;9.27;7.00;;;;;;;20.57;63.62;100516.91;4965394;28;20093;-74
2021/06/18 00:21:04;;;;;;;11.23;6.78;;;;;;;20.54;63.26;100517.06;4961456;28;20047;-74
2021/06/18 00:23:29;;;;;;;9.00;6.80;;;;;;;20.52;63.47;100521.56;4964803;28;20043;-74
2021/06/18 00:25:55;;;;;;;10.05;5.85;;;;;;;20.46;63.02;100516.53;4944797;28;20182;-74
2021/06/18 00:28:20;;;;;;;8.68;6.15;;;;;;;20.40;62.54;100527.50;4964432;28;20030;-74
2021/06/18 00:30:45;;;;;;;7.43;6.43;;;;;;;20.33;62.70;100531.41;4962840;28;20586;-74
2021/06/18 00:33:11;;;;;;;8.80;5.88;;;;;;;20.25;62.46;100529.13;4963924;28;20034;-74
2021/06/18 00:35:37;;;;;;;8.25;6.32;;;;;;;20.25;62.94;100525.53;4962834;28;20039;-74
2021/06/18 00:38:02;;;;;;;10.05;7.25;;;;;;;20.25;62.54;100522.84;4963221;28;20125;-74
2021/06/18 00:40:28;;;;;;;10.05;7.25;;;;;;;20.26;62.69;100524.63;4963667;28;20380;-74
2021/06/18 00:42:54;;;;;;;9.52;7.32;;;;;;;20.26;63.03;100529.97;4962582;28;20479;-74
2021/06/18 00:45:19;;;;;;;8.13;7.30;;;;;;;20.25;63.03;100526.44;4963827;28;20035;-74
2021/06/18 00:47:50;;;;;;;7.47;6.75;;;;;;;20.23;62.83;100531.00;4962012;28;20067;-74
2021/06/18 00:50:17;;;;;;;8.82;7.50;;;;;;;20.21;63.05;100523.97;4961715;28;20094;-74
2021/06/18 00:52:43;;;;;;;7.35;6.50;;;;;;;20.19;63.14;100528.50;4964086;28;20038;-73
2021/06/18 00:55:10;;;;;;;11.45;7.22;;;;;;;20.13;63.92;100519.81;4961989;28;20125;-74
2021/06/18 00:57:36;;;;;;;69.65;10.00;;;;;;;20.08;63.74;100526.31;4962616;28;20094;-74
2021/06/18 01:00:03;;;;;;;7.78;6.40;;;;;;;20.07;63.55;100533.50;4963256;28;20610;-74
2021/06/18 01:02:28;;;;;;;6.97;6.28;;;;;;;20.03;63.70;100529.22;4958507;28;20058;-74
2021/06/18 01:04:53;;;;;;;7.53;6.72;;;;;;;20.01;63.87;100525.72;4961082;28;20047;-74
2021/06/18 01:07:30;;;;;;;8.07;6.65;;;;;;;20.01;63.63;100527.53;4963916;28;20045;-74
2021/06/18 01:10:23;;;;;;;9.80;6.00;;;;;;;20.01;63.70;100519.50;4958563;28;20039;-74
2021/06/18 01:12:58;;;;;;;8.93;6.45;;;;;;;19.99;63.17;100514.22;4961746;28;20616;-74
2021/06/18 01:15:46;;;;;;;8.07;6.90;;;;;;;19.96;63.66;100510.81;4962033;28;20035;-74
2021/06/18 01:18:15;;;;;;;8.65;7.30;;;;;;;19.96;63.01;100510.81;4945192;28;20083;-74
2021/06/18 01:21:02;;;;;;;9.43;6.63;;;;;;;19.93;63.21;100518.03;4962200;28;20133;-74
2021/06/18 01:23:27;;;;;;;8.20;6.97;;;;;;;19.89;62.87;100520.94;4960821;28;20522;-74
2021/06/18 01:26:03;;;;;;;7.25;6.28;;;;;;;19.87;63.35;100522.81;4962439;28;20031;-74
2021/06/18 01:28:39;;;;;;;7.07;6.00;;;;;;;19.87;63.42;100512.09;4964509;28;20124;-74
2021/06/18 01:31:07;;;;;;;6.35;5.55;;;;;;;19.86;62.43;100513.91;4962332;28;20062;-74
2021/06/18 01:33:35;;;;;;;7.47;5.95;;;;;;;19.86;62.61;100515.72;4962178;28;20081;-74
2021/06/18 01:36:02;;;;;;;9.05;5.70;;;;;;;19.83;62.79;100518.50;4963297;28;20059;-74
2021/06/18 01:38:31;;;;;;;7.47;6.18;;;;;;;19.81;62.76;100517.75;4961292;28;20039;-74
2021/06/18 01:41:01;;;;;;;6.70;6.03;;;;;;;19.76;62.34;100517.94;4960854;28;20089;-74
2021/06/18 01:43:29;;;;;;;6.93;5.47;;;;;;;19.73;62.82;100511.81;4946053;28;20085;-74
2021/06/18 01:45:56;;;;;;;7.35;6.63;;;;;;;19.70;62.94;100520.88;4962012;28;20400;-74
2021/06/18 01:48:22;;;;;;;8.13;6.80;;;;;;;19.65;62.99;100518.38;4962306;28;20039;-73
2021/06/18 01:50:49;;;;;;;8.93;7.10;;;;;;;19.61;62.96;100511.41;4963409;28;20403;-74
2021/06/18 01:53:20;;;;;;;7.72;6.18;;;;;;;19.57;62.75;100514.28;4944075;28;20042;-74
2021/06/18 01:55:48;;;;;;;8.45;6.20;;;;;;;19.54;62.49;100509.06;4963760;28;20031;-74
2021/06/18 01:58:16;;;;;;;6.93;6.05;;;;;;;19.50;62.33;100500.31;4961234;28;20031;-74
2021/06/18 02:00:45;;;;;;;7.45;5.65;;;;;;;19.48;62.67;100503.03;4963089;28;20038;-74
2021/06/18 02:03:14;;;;;;;8.27;5.80;;;;;;;19.42;62.56;100495.28;4962427;28;20122;-74
2021/06/18 02:05:41;;;;;;;8.45;5.93;;;;;;;19.40;62.48;100501.66;4961119;28;20035;-74
2021/06/18 02:08:09;;;;;;;8.25;6.85;;;;;;;19.36;62.36;100500.91;4963703;28;20038;-74
2021/06/18 02:10:35;;;;;;;10.23;6.85;;;;;;;19.32;62.82;100498.44;4960361;28;20042;-74
2021/06/18 02:13:04;;;;;;;7.47;6.65;;;;;;;19.29;63.00;100498.56;4963780;28;20134;-74
2021/06/18 02:15:31;;;;;;;7.07;6.07;;;;;;;19.25;62.89;100501.34;4961180;28;20129;-74
2021/06/18 02:17:57;;;;;;;7.47;6.00;;;;;;;19.22;63.08;100504.16;4966361;28;20054;-74
2021/06/18 02:20:23;;;;;;;6.90;5.80;;;;;;;19.20;63.09;100503.38;4965894;28;20038;-74
2021/06/18 02:22:50;;;;;;;6.57;5.97;;;;;;;19.18;62.94;100507.91;4965565;28;20022;-73
2021/06/18 02:25:16;;;;;;;7.05;5.70;;;;;;;19.14;63.23;100506.28;4966207;28;20051;-74
2021/06/18 02:27:43;;;;;;;6.43;5.72;;;;;;;19.13;63.26;100514.41;4947386;28;20039;-74
2021/06/18 02:30:12;;;;;;;7.82;5.20;;;;;;;19.11;63.27;100511.78;4967364;28;20030;-74
2021/06/18 02:32:38;;;;;;;6.50;5.65;;;;;;;19.08;63.94;100511.91;4960651;28;20058;-73
2021/06/18 02:35:04;;;;;;;9.20;5.60;;;;;;;19.04;64.14;100526.31;4949379;28;20407;-74
2021/06/18 02:37:29;;;;;;;7.43;5.80;;;;;;;18.97;64.23;100515.03;4964624;28;20035;-74
2021/06/18 02:39:55;;;;;;;13.45;6.45;;;;;;;18.93;64.44;100516.06;4966115;28;20558;-74
2021/06/18 02:42:21;;;;;;;6.20;5.40;;;;;;;18.91;63.88;100517.94;4965143;28;20078;-74
2021/06/18 02:44:46;;;;;;;7.50;5.43;;;;;;;18.92;64.06;100516.16;4965170;28;20495;-74
2021/06/18 02:47:24;;;;;;;9.68;5.97;;;;;;;18.92;64.04;100517.03;4965532;28;20097;-74
2021/06/18 02:49:54;;;;;;;7.72;6.63;;;;;;;18.96;63.46;100520.44;4960078;28;20122;-74
2021/06/18 02:52:34;;;;;;;7.05;6.10;;;;;;;18.93;64.17;100518.75;4966354;28;20502;-74
2021/06/18 02:55:11;;;;;;;7.25;6.47;;;;;;;18.95;64.19;100518.69;4966359;28;20078;-74
2021/06/18 02:57:58;;;;;;;10.07;8.30;;;;;;;18.92;64.27;100522.38;4961953;28;20122;-74
2021/06/18 03:00:26;;;;;;;13.73;12.35;;;;;;;18.96;64.28;100528.44;4964051;28;20035;-74
2021/06/18 03:02:55;;;;;;;11.82;10.60;;;;;;;18.99;63.96;100531.00;4965816;28;20042;-74
2021/06/18 03:05:23;;;;;;;9.50;8.15;;;;;;;19.00;63.90;100535.44;4964658;28;20049;-74
2021/06/18 03:08:00;;;;;;;12.85;9.68;;;;;;;19.00;64.50;100528.28;4964685;28;20113;-74
2021/06/18 03:10:28;;;;;;;9.35;7.32;;;;;;;18.96;64.19;100539.16;4963586;28;20064;-74
2021/06/18 03:13:01;;;;;;;8.30;7.05;;;;;;;18.91;64.83;100530.44;4965594;28;20043;-74
2021/06/18 03:15:30;;;;;;;8.68;6.13;;;;;;;18.91;64.70;100531.31;4960231;28;20038;-74
2021/06/18 03:17:57;;;;;;;8.93;6.25;;;;;;;18.88;64.75;100535.91;4966018;28;20483;-74
2021/06/18 03:20:23;;;;;;;8.38;6.30;;;;;;;18.84;65.11;100529.84;4963208;28;20090;-74
2021/06/18 03:22:54;;;;;;;7.28;6.28;;;;;;;18.84;64.91;100535.19;4966621;28;20022;-74
2021/06/18 03:25:21;;;;;;;9.70;8.52;;;;;;;18.87;64.80;100550.25;4963133;28;20078;-74
2021/06/18 03:27:47;;;;;;;12.90;11.32;;;;;;;18.95;64.53;100543.63;4960816;28;20054;-74
2021/06/18 03:30:13;;;;;;;17.48;13.27;;;;;;;19.04;64.37;100542.38;4964607;28;20037;-74
2021/06/18 03:32:39;;;;;;;15.23;13.10;;;;;;;19.13;64.04;100551.84;4965120;28;20118;-74
2021/06/18 03:35:06;;;;;;;9.40;8.35;;;;;;;19.17;63.99;100548.97;4963641;28;20038;-74
2021/06/18 03:37:32;;;;;;;9.93;7.85;;;;;;;19.17;63.52;100551.63;4965476;28;20090;-74
2021/06/18 03:39:58;;;;;;;8.30;7.30;;;;;;;19.23;63.53;100548.72;4956459;28;20051;-74
2021/06/18 03:42:24;;;;;;;10.13;7.65;;;;;;;19.26;63.42;100548.59;4966046;28;20035;-74
2021/06/18 03:44:50;;;;;;;9.07;6.95;;;;;;;19.27;63.99;100550.31;4941058;28;20483;-74
2021/06/18 03:47:16;;;;;;;11.48;10.25;;;;;;;19.32;63.76;100551.94;4965709;28;20090;-74
2021/06/18 03:49:44;;;;;;;14.48;12.27;;;;;;;19.39;63.39;100551.63;4963219;28;20459;-74
2021/06/18 03:52:10;;;;;;;13.30;12.00;;;;;;;19.46;63.43;100545.06;4964664;28;20745;-74
2021/06/18 03:54:36;;;;;;;12.65;11.48;;;;;;;19.55;63.16;100549.16;4962365;28;20039;-74
2021/06/18 03:57:02;;;;;;;14.65;12.90;;;;;;;19.63;62.92;100544.34;4963889;28;20075;-73
2021/06/18 03:59:29;;;;;;;13.38;12.00;;;;;;;19.69;62.88;100543.25;4963410;28;20042;-74
2021/06/18 04:01:57;;;;;;;12.43;11.07;;;;;;;19.74;62.84;100549.25;4963468;28;20026;-74
2021/06/18 04:04:26;;;;;;;10.35;9.02;;;;;;;19.79;62.52;100551.75;4947574;28;20071;-74
2021/06/18 04:06:52;;;;;;;11.55;10.38;;;;;;;19.84;62.95;100550.59;4938303;28;20114;-74
2021/06/18 04:09:18;;;;;;;12.00;10.90;;;;;;;19.92;62.33;100558.28;4962287;28;20059;-74
2021/06/18 04:11:47;;;;;;;12.77;10.38;;;;;;;20.00;62.18;100550.78;4947542;28;20038;-74
2021/06/18 04:14:14;;;;;;;11.32;9.93;;;;;;;20.04;61.87;100549.72;4963420;28;20050;-74
2021/06/18 04:16:40;;;;;;;14.40;11.82;;;;;;;20.11;61.86;100561.00;4946136;28;20042;-74
2021/06/18 04:19:10;;;;;;;11.68;10.43;;;;;;;20.18;62.00;100556.25;4944450;28;20122;-74
2021/06/18 04:21:41;;;;;;;10.82;9.73;;;;;;;20.24;61.83;100550.63;4964998;28;20122;-74
2021/06/18 04:24:07;;;;;;;12.37;11.13;;;;;;;20.32;61.28;100552.00;4961457;28;20512;-74
2021/06/18 04:26:32;;;;;;;12.75;11.02;;;;;;;20.42;61.24;100555.13;4964191;28;20282;-74
2021/06/18 04:28:58;;;;;;;12.90;11.65;;;;;;;20.48;60.91;100557.50;4962879;28;20510;-74
2021/06/18 04:31:23;;;;;;;10.68;9.57;;;;;;;20.57;60.76;100559.81;4963931;28;20482;-74
2021/06/18 04:33:49;;;;;;;12.48;10.95;;;;;;;20.66;60.82;100554.94;4963173;28;20038;-74
2021/06/18 04:36:14;;;;;;;16.02;10.98;;;;;;;20.69;60.77;100549.41;4945776;28;20407;-74
2021/06/18 04:38:40;;;;;;;13.15;11.15;;;;;;;20.81;60.43;100554.22;4931236;28;20055;-74
2021/06/18 04:41:05;;;;;;;12.10;10.80;;;;;;;20.96;59.73;100557.97;4962813;28;20912;-74
2021/06/18 04:43:30;;;;;;;12.50;9.93;;;;;;;21.06;59.55;100558.38;4964184;28;20034;-74
2021/06/18 04:45:56;;;;;;;8.48;6.85;;;;;;;21.12;59.66;100558.09;4961829;28;20043;-75
2021/06/18 04:48:21;;;;;;;8.80;6.95;;;;;;;21.17;59.37;100562.28;4964865;28;20030;-74
2021/06/18 04:50:47;;;;;;;8.27;6.85;;;;;;;21.22;59.09;100560.22;4961480;28;20074;-75
2021/06/18 04:53:13;;;;;;;8.38;7.10;;;;;;;21.30;58.71;100558.94;4964706;28;20038;-74
2021/06/18 04:55:40;;;;;;;9.38;8.35;;;;;;;21.39;58.28;100569.28;4961136;28;20086;-74
2021/06/18 04:58:05;;;;;;;10.65;9.23;;;;;;;21.48;57.97;100557.19;4964262;28;20384;-74
2021/06/18 05:00:32;;;;;;;16.48;14.77;;;;;;;21.56;57.85;100563.03;4962327;28;20031;-74
2021/06/18 05:02:57;;;;;;;10.30;7.65;;;;;;;21.63;57.53;100553.72;4963494;28;20097;-75
2021/06/18 05:05:23;;;;;;;7.75;6.72;;;;;;;21.66;57.75;100558.94;4956537;28;20039;-74
2021/06/18 05:07:53;;;;;;;8.02;7.22;;;;;;;21.77;57.36;100561.94;4954380;28;20035;-74
2021/06/18 05:10:18;;;;;;;10.10;9.02;;;;;;;21.90;57.62;100554.09;4962560;28;20030;-74
2021/06/18 05:12:43;;;;;;;9.63;8.63;;;;;;;22.00;57.02;100552.66;4961020;28;20563;-74
2021/06/18 05:15:09;;;;;;;12.38;8.80;;;;;;;22.10;56.73;100553.91;4960594;28;20047;-74
2021/06/18 05:17:35;;;;;;;10.95;7.65;;;;;;;22.19;56.99;100557.97;4964416;28;20098;-74
2021/06/18 05:20:00;;;;;;;13.77;6.28;;;;;;;22.26;56.63;100559.34;4960806;28;20043;-74
2021/06/18 05:22:25;;;;;;;7.72;4.47;;;;;;;22.31;56.23;100561.78;4945805;28;20426;-74
2021/06/18 05:24:51;;;;;;;6.38;5.78;;;;;;;22.42;55.98;100561.19;4960799;28;20411;-74
2021/06/18 05:27:16;;;;;;;7.80;6.68;;;;;;;22.56;56.29;100571.19;4963835;28;20599;-74
2021/06/18 05:29:41;;;;;;;8.82;7.93;;;;;;;22.68;55.88;100565.13;4961859;28;20515;-74
2021/06/18 05:32:07;;;;;;;9.35;7.95;;;;;;;22.81;55.64;100570.69;4959103;28;20035;-74
2021/06/18 05:34:32;;;;;;;7.95;5.72;;;;;;;22.88;54.69;100566.72;4962614;28;20469;-74
2021/06/18 05:36:57;;;;;;;6.60;4.13;;;;;;;22.92;55.03;100568.25;4962436;28;20451;-74
2021/06/18 05:39:23;;;;;;;9.45;8.55;;;;;;;23.03;54.35;100571.25;4962394;28;20458;-74
2021/06/18 05:41:48;;;;;;;9.73;8.77;;;;;;;23.17;54.02;100562.38;4962870;28;20027;-74
2021/06/18 05:44:13;;;;;;;10.95;9.43;;;;;;;23.29;53.89;100561.66;4960740;28;20097;-74
2021/06/18 05:46:39;;;;;;;11.88;10.02;;;;;;;23.42;53.98;100561.78;4961547;28;20051;-74
2021/06/18 05:49:05;;;;;;;10.95;9.85;;;;;;;23.54;52.95;100550.28;4946409;28;20121;-74
2021/06/18 05:51:30;;;;;;;11.25;8.50;;;;;;;23.67;52.62;100554.94;4962783;28;20082;-74
2021/06/18 05:53:56;;;;;;;12.60;8.07;;;;;;;23.78;52.66;100553.34;4967848;28;20039;-73
2021/06/18 05:56:21;;;;;;;11.80;10.45;;;;;;;23.90;52.35;100557.16;4964146;28;20038;-74
2021/06/18 05:58:46;;;;;;;7.40;5.68;;;;;;;24.00;51.78;100558.31;4967912;28;20578;-74
2021/06/18 06:01:12;;;;;;;8.05;6.28;;;;;;;24.08;51.86;100554.25;4964831;28;20094;-74
2021/06/18 06:03:37;;;;;;;9.60;8.32;;;;;;;24.18;51.34;100555.41;4967464;28;20046;-74
2021/06/18 06:06:03;;;;;;;8.25;7.30;;;;;;;24.31;51.17;100552.81;4964670;28;20558;-73
2021/06/18 06:08:30;;;;;;;9.52;8.35;;;;;;;24.43;50.88;100561.00;4966914;28;20042;-74
2021/06/18 06:10:56;;;;;;;10.25;8.98;;;;;;;24.51;49.96;100559.69;4965982;28;20095;-75
2021/06/18 06:13:21;;;;;;;7.40;6.70;;;;;;;24.61;50.16;100560.84;4966102;28;20031;-74
2021/06/18 06:15:47;;;;;;;6.63;4.57;;;;;;;24.70;49.60;100557.53;4966101;28;20476;-75
2021/06/18 06:18:14;;;;;;;6.35;4.93;;;;;;;24.80;49.39;100566.78;4965126;28;20078;-75
2021/06/18 06:20:41;;;;;;;11.25;7.53;;;;;;;24.92;49.46;100565.13;4966985;28;20510;-73
2021/06/18 06:23:06;;;;;;;7.47;6.60;;;;;;;25.00;48.86;100561.91;4964241;28;20042;-73
2021/06/18 06:25:32;;;;;;;7.88;7.07;;;;;;;25.12;48.87;100561.94;4967144;28;20039;-74
2021/06/18 06:27:57;;;;;;;6.80;5.43;;;;;;;25.25;48.81;100564.72;4964176;28;20114;-75
2021/06/18 06:30:22;;;;;;;10.52;8.57;;;;;;;25.40;48.35;100564.69;4967175;28;20415;-75
2021/06/18 06:32:48;;;;;;;10.45;6.88;;;;;;;25.53;47.26;100558.34;4947235;28;20427;-74
2021/06/18 06:35:13;;;;;;;11.85;8.10;;;;;;;25.65;47.32;100567.47;4966122;28;20061;-75
2021/06/18 06:37:38;;;;;;;12.32;8.80;;;;;;;25.77;47.12;100565.72;4964932;28;20105;-77
2021/06/18 06:40:05;;;;;;;10.98;7.10;;;;;;;25.91;46.35;100562.09;4966028;28;20038;-74
2021/06/18 06:42:31;;;;;;;10.75;6.13;;;;;;;25.98;45.82;100563.41;4965564;28;20039;-74
2021/06/18 06:44:56;;;;;;;8.35;5.13;;;;;;;26.10;45.33;100557.13;4947603;28;20498;-74
2021/06/18 06:47:22;;;;;;;7.22;5.35;;;;;;;26.16;44.81;100554.00;4965883;28;20121;-75
2021/06/18 06:49:47;;;;;;;7.63;5.78;;;;;;;26.30;44.78;100560.25;4964413;28;20130;-75
2021/06/18 06:52:12;;;;;;;8.13;5.00;;;;;;;26.43;43.93;100561.09;4966240;28;20143;-74
2021/06/18 06:54:38;;;;;;;7.50;4.72;;;;;;;26.50;43.43;100559.69;4963680;28;20063;-75
2021/06/18 06:57:03;;;;;;;7.28;6.22;;;;;;;26.62;43.45;100561.56;4966708;28;20047;-74
2021/06/18 06:59:28;;;;;;;8.32;4.38;;;;;;;26.74;42.39;100559.78;4963368;28;20109;-74
2021/06/18 07:01:54;;;;;;;10.38;6.88;;;;;;;26.87;43.09;100568.72;4949690;28;20045;-75
2021/06/18 07:04:19;;;;;;;8.93;5.50;;;;;;;26.92;41.94;100562.97;4963170;28;20463;-75
2021/06/18 07:06:45;;;;;;;6.50;4.32;;;;;;;27.01;41.52;100561.41;4966253;28;20491;-74
2021/06/18 07:09:11;;;;;;;5.63;3.38;;;;;;;27.16;40.46;100551.28;4964015;28;20555;-75
2021/06/18 07:11:36;;;;;;;7.30;4.32;;;;;;;27.29;40.76;100558.38;4965708;28;20031;-75
2021/06/18 07:14:02;;;;;;;9.73;6.57;;;;;;;27.40;40.68;100560.28;4964429;28;20031;-75
2021/06/18 07:16:28;;;;;;;14.02;7.00;;;;;;;27.50;40.27;100566.72;4964660;28;20038;-75
2021/06/18 07:18:54;;;;;;;7.95;7.05;;;;;;;27.53;40.16;100547.50;4965204;28;20035;-75
2021/06/18 07:21:20;;;;;;;7.75;5.97;;;;;;;27.66;40.09;100554.72;4964137;28;20042;-75
2021/06/18 07:23:45;;;;;;;9.07;6.07;;;;;;;27.71;40.17;100552.50;4965413;28;20035;-74
2021/06/18 07:26:11;;;;;;;7.70;5.43;;;;;;;27.77;40.02;100552.03;4962735;28;20031;-74
2021/06/18 07:28:36;;;;;;;7.10;5.32;;;;;;;27.86;39.59;100545.06;4961087;28;20046;-75
2021/06/18 07:31:01;;;;;;;9.68;7.38;;;;;;;27.99;39.46;100550.41;4960035;28;20035;-75
2021/06/18 07:33:27;;;;;;;9.52;6.80;;;;;;;28.08;38.85;100555.06;4966226;28;20030;-75
2021/06/18 07:35:52;;;;;;;6.25;4.80;;;;;;;28.19;38.98;100547.81;4962448;28;20035;-75
2021/06/18 07:38:17;;;;;;;5.88;4.63;;;;;;;28.27;38.79;100549.03;4966015;28;20118;-76
2021/06/18 07:40:43;;;;;;;4.90;3.20;;;;;;;28.28;38.01;100548.06;4963328;28;20073;-75
2021/06/18 07:43:08;;;;;;;12.80;7.68;;;;;;;28.32;38.38;100545.00;4965360;28;20038;-74
2021/06/18 07:45:34;;;;;;;8.23;7.18;;;;;;;28.35;38.28;100535.75;4963342;28;20043;-75
2021/06/18 07:47:59;;;;;;;7.07;4.18;;;;;;;28.43;37.74;100533.28;4964665;28;20045;-75
2021/06/18 07:50:26;;;;;;;7.55;5.80;;;;;;;28.52;38.31;100531.69;4964177;28;20039;-75
2021/06/18 07:52:51;;;;;;;10.25;6.40;;;;;;;28.62;38.25;100536.22;4946715;28;20118;-75
2021/06/18 07:55:23;;;;;;;6.63;4.18;;;;;;;28.68;36.90;100524.00;4964465;28;20110;-76
2021/06/18 07:57:49;;;;;;;7.55;5.72;;;;;;;28.76;36.62;100531.50;4962598;28;20078;-76
2021/06/18 08:00:15;;;;;;;5.93;5.00;;;;;;;28.81;36.86;100532.84;4965810;28;20062;-74
2021/06/18 08:02:41;;;;;;;4.97;3.83;;;;;;;28.81;37.12;100527.41;4962315;28;20147;-74
2021/06/18 08:05:09;;;;;;;5.63;4.95;;;;;;;28.89;36.46;100525.94;4945470;28;20508;-74
2021/06/18 08:07:35;;;;;;;6.68;5.57;;;;;;;28.98;36.41;100527.91;4964215;28;20039;-76
2021/06/18 08:10:00;;;;;;;5.72;3.58;;;;;;;29.00;36.00;100526.78;4963457;28;20047;-74
2021/06/18 08:12:25;;;;;;;11.30;7.45;;;;;;;29.18;36.41;100527.09;4962052;28;20049;-74
2021/06/18 08:14:51;;;;;;;7.43;6.30;;;;;;;29.28;36.23;100517.16;4962661;28;20042;-74
2021/06/18 08:17:17;;;;;;;6.55;4.82;;;;;;;29.36;36.11;100515.66;4964123;28;20122;-74
2021/06/18 08:19:43;;;;;;;5.32;4.20;;;;;;;29.42;35.37;100516.00;4963046;28;20115;-74
2021/06/18 08:22:08;;;;;;;9.48;6.55;;;;;;;29.43;35.52;100523.16;4964880;28;20470;-74
2021/06/18 08:24:34;;;;;;;8.40;5.95;;;;;;;29.53;35.58;100516.91;4961937;28;20031;-74
2021/06/18 08:26:59;;;;;;;6.50;5.10;;;;;;;29.64;34.58;100520.47;4965141;28;20043;-74
2021/06/18 08:29:25;;;;;;;8.15;6.03;;;;;;;29.69;34.54;100512.78;4961514;28;20046;-74
2021/06/18 08:31:50;;;;;;;6.13;3.22;;;;;;;29.81;34.03;100507.28;4965123;28;20070;-74
2021/06/18 08:34:16;;;;;;;5.28;3.60;;;;;;;29.85;33.28;100508.75;4944401;28;20034;-74
2021/06/18 08:36:41;;;;;;;8.10;5.63;;;;;;;29.88;33.58;100501.16;4964379;28;20038;-74
2021/06/18 08:39:07;;;;;;;5.88;4.97;;;;;;;29.97;34.12;100499.47;4962436;28;20035;-75
2021/06/18 08:41:32;;;;;;;4.93;3.75;;;;;;;30.05;33.24;100496.06;4963954;28;20030;-74
2021/06/18 08:43:58;;;;;;;6.18;4.13;;;;;;;30.05;33.19;100491.53;4963036;28;20488;-74
2021/06/18 08:46:23;;;;;;;10.40;3.95;;;;;;;30.05;33.19;100490.63;4962944;28;20038;-74
2021/06/18 08:48:49;;;;;;;7.68;4.10;;;;;;;30.08;32.88;100491.25;4960383;28;20051;-74
2021/06/18 08:51:14;;;;;;;8.27;4.30;;;;;;;30.18;33.57;100491.25;4962624;28;20046;-74
2021/06/18 08:53:42;;;;;;;4.93;3.70;;;;;;;30.18;32.69;100490.41;4963819;28;20043;-74
2021/06/18 08:56:08;;;;;;;8.35;5.93;;;;;;;30.28;33.03;100491.34;4961421;28;20089;-74
2021/06/18 08:58:34;;;;;;;6.30;3.00;;;;;;;30.28;32.20;100484.03;5005748;23;20050;-75
2021/06/18 09:01:00;;;;;;;7.80;3.78;;;;;;;30.28;32.81;100481.31;4992032;28;20042;-75
2021/06/18 09:03:35;;;;;;;8.45;5.35;;;;;;;30.42;31.89;100477.38;4991972;28;20039;-75
2021/06/18 09:06:22;;;;;;;6.78;3.95;;;;;;;30.51;32.07;100476.50;4991560;28;20154;-75
2021/06/18 09:09:23;;;;;;;7.03;4.15;;;;;;;30.68;31.44;100476.81;4965651;28;20042;-75
2021/06/18 09:12:01;;;;;;;4.97;3.77;;;;;;;30.82;31.84;100479.19;4971618;28;20501;-75
2021/06/18 09:14:30;;;;;;;6.47;5.10;;;;;;;30.98;31.99;100476.75;4972164;28;20282;-76
2021/06/18 09:17:20;;;;;;;6.40;4.78;;;;;;;31.06;31.01;100477.91;4968834;28;20058;-76
2021/06/18 09:19:54;;;;;;;8.48;5.05;;;;;;;31.14;31.23;100478.06;4972473;28;20041;-76
2021/06/18 09:22:39;;;;;;;4.07;3.22;;;;;;;31.24;31.08;100478.91;4972415;28;20368;-76
2021/06/18 09:25:13;;;;;;;5.40;2.92;;;;;;;31.35;30.98;100473.31;4971666;28;20050;-76
2021/06/18 09:27:44;;;;;;;7.45;4.45;;;;;;;31.44;30.96;100475.22;4954742;28;20097;-76
2021/06/18 09:30:31;;;;;;;5.65;3.90;;;;;;;31.53;30.07;100467.16;4970329;28;20042;-76
2021/06/18 09:33:01;;;;;;;5.07;2.88;;;;;;;31.62;30.93;100466.25;4972328;28;20414;-76
2021/06/18 09:35:28;;;;;;;8.38;4.93;;;;;;;31.69;30.11;100472.84;4970697;28;20046;-75
2021/06/18 09:37:55;;;;;;;6.25;3.80;;;;;;;31.62;30.14;100467.13;4953344;28;20058;-75
2021/06/18 09:40:22;;;;;;;8.68;4.68;;;;;;;31.73;30.27;100474.28;4972134;28;20125;-75
2021/06/18 09:42:52;;;;;;;10.05;4.90;;;;;;;31.87;30.06;100467.47;4972164;28;20023;-76
2021/06/18 09:45:23;;;;;;;7.28;3.05;;;;;;;31.90;28.95;100466.31;4971895;28;20050;-76
2021/06/18 09:47:50;;;;;;;7.60;2.88;;;;;;;31.84;28.75;100457.72;4971986;28;20062;-75
2021/06/18 09:50:15;;;;;;;6.18;2.95;;;;;;;31.90;29.00;100461.72;4972028;28;20041;-76
2021/06/18 09:52:44;;;;;;;8.30;3.00;;;;;;;32.04;28.97;100465.84;4971938;28;20038;-75
2021/06/18 09:55:19;;;;;;;6.18;4.85;;;;;;;31.91;27.93;100466.16;4971717;28;20289;-76
2021/06/18 09:57:45;;;;;;;7.65;3.47;;;;;;;32.08;28.10;100470.03;4971309;28;20411;-75
2021/06/18 10:00:16;;;;;;;5.97;3.22;;;;;;;32.22;28.25;100461.31;4971825;28;20034;-75
2021/06/18 10:02:50;;;;;;;9.30;4.15;;;;;;;32.39;27.67;100459.66;4972457;28;20031;-74
2021/06/18 10:05:17;;;;;;;6.75;3.92;;;;;;;32.56;27.71;100451.69;4967452;28;20039;-76
2021/06/18 10:07:44;;;;;;;5.38;3.70;;;;;;;32.65;27.17;100457.09;4971876;28;20038;-76
2021/06/18 10:10:12;;;;;;;5.25;3.85;;;;;;;32.78;26.97;100444.91;4971842;28;20035;-76
2021/06/18 10:12:39;;;;;;;6.35;3.00;;;;;;;32.77;27.13;100456.84;4971662;28;20038;-77
2021/06/18 10:15:07;;;;;;;6.30;3.50;;;;;;;32.83;26.86;100453.50;4971535;28;20043;-77
2021/06/18 10:17:38;;;;;;;5.90;4.43;;;;;;;32.96;26.49;100456.72;4971040;28;20212;-78
2021/06/18 10:20:07;;;;;;;6.93;5.10;;;;;;;33.05;26.46;100458.53;4970757;28;20049;-77
2021/06/18 10:22:36;;;;;;;7.07;4.72;;;;;;;33.11;25.84;100466.09;4971657;28;20034;-77
2021/06/18 10:25:04;;;;;;;4.70;3.30;;;;;;;33.14;25.70;100452.13;4958947;28;20109;-77
2021/06/18 10:27:34;;;;;;;5.70;4.95;;;;;;;33.06;25.60;100454.78;4971593;28;20050;-77
2021/06/18 10:30:26;;;;;;;6.00;2.58;;;;;;;33.16;25.69;100441.88;4966266;28;20035;-77
2021/06/18 10:32:53;;;;;;;6.38;2.88;;;;;;;33.32;25.42;100440.28;4971627;28;20596;-76
2021/06/18 10:35:40;;;;;;;4.47;3.30;;;;;;;33.17;24.02;100446.34;4971334;28;20384;-76
2021/06/18 10:38:12;;;;;;;3.60;2.40;;;;;;;33.25;24.78;100436.47;4948882;28;20035;-76
2021/06/18 10:40:45;;;;;;;4.22;2.80;;;;;;;33.42;24.65;100443.78;4975228;28;20027;-75
2021/06/18 10:43:14;;;;;;;6.28;2.45;;;;;;;33.42;23.81;100434.75;4975092;28;20034;-76
2021/06/18 10:45:58;;;;;;;5.53;2.85;;;;;;;33.37;24.17;100443.41;4974806;28;20414;-76
2021/06/18 10:48:51;;;;;;;4.47;2.25;;;;;;;33.44;24.39;100444.50;4974959;28;20034;-76
2021/06/18 10:51:25;;;;;;;4.50;3.72;;;;;;;33.54;23.84;100428.03;4975046;28;20035;-76
2021/06/18 10:53:52;;;;;;;5.93;3.88;;;;;;;33.62;25.21;100424.47;4974967;28;20038;-76
2021/06/18 10:56:18;;;;;;;5.93;3.45;;;;;;;33.72;25.16;100427.94;4974561;28;20062;-76
2021/06/18 10:59:07;;;;;;;6.72;2.15;;;;;;;33.71;23.86;100426.22;4957196;28;20062;-76
2021/06/18 11:01:34;;;;;;;6.22;3.75;;;;;;;33.71;23.92;100418.03;4959168;28;20034;-76
2021/06/18 11:04:00;;;;;;;6.68;4.03;;;;;;;33.76;24.24;100419.25;4972650;28;20503;-76
2021/06/18 11:06:47;;;;;;;4.47;2.80;;;;;;;33.73;24.00;100421.47;4971349;28;20109;-77
2021/06/18 11:09:13;;;;;;;4.05;2.50;;;;;;;33.86;23.83;100419.13;4973483;28;20406;-77
2021/06/18 11:11:39;;;;;;;12.32;4.03;;;;;;;34.07;24.11;100418.75;4957337;28;20125;-77
2021/06/18 11:14:11;;;;;;;6.88;3.70;;;;;;;34.20;23.29;100410.94;4974529;28;20062;-76
2021/06/18 11:16:41;;;;;;;4.93;3.13;;;;;;;34.31;23.09;100409.75;4974497;28;20061;-76
2021/06/18 11:19:20;;;;;;;6.35;4.13;;;;;;;34.37;24.07;100414.56;4974427;28;20734;-76
2021/06/18 11:21:46;;;;;;;5.55;3.42;;;;;;;34.52;23.50;100408.44;4970865;28;20041;-76
2021/06/18 11:24:11;;;;;;;6.15;4.00;;;;;;;34.58;23.14;100407.78;4970025;28;20027;-77
2021/06/18 11:26:36;;;;;;;8.20;4.28;;;;;;;34.59;23.10;100407.66;4972590;28;20027;-77